sensor_id;sensor_type;location;lat;lon;timestamp;pressure;altitude;pressure_sealevel;temperature;humidity
67840;BME280;54636;51.684;5.142;2022-11-15T00:01:35;100886.00;;;5.90;100.00
67840;BME280;54636;51.684;5.142;2022-11-15T00:04:03;100873.13;;;5.85;100.00
67840;BME280;54636;51.684;5.142;2022-11-15T00:06:29;100884.50;;;5.89;100.00
67840;BME280;54636;51.684;5.142;2022-11-15T00:08:54;100854.97;;;5.76;100.00
67840;BME280;54636;51.684;5.142;2022-11-15T00:11:19;100889.91;;;5.98;100.00
67840;BME280;54636;51.684;5.142;2022-11-15T00:13:45;100840.09;;;5.62;100.00
67840;BME280;54636;51.684;5.142;2022-11-15T00:16:10;100876.75;;;6.00;100.00
67840;BME280;54636;51.684;5.142;2022-11-15T00:18:37;100882.13;;;6.00;100.00
67840;BME280;54636;51.684;5.142;2022-11-15T00:21:10;100868.50;;;5.94;100.00
67840;BME280;54636;51.684;5.142;2022-11-15T00:23:36;100829.50;;;5.68;100.00
67840;BME280;54636;51.684;5.142;2022-11-15T00:26:01;100857.41;;;5.92;100.00
67840;BME280;54636;51.684;5.142;2022-11-15T00:28:27;100878.13;;;6.14;100.00
67840;BME280;54636;51.684;5.142;2022-11-15T00:30:53;100868.53;;;6.13;100.00
67840;BME280;54636;51.684;5.142;2022-11-15T00:33:18;100841.25;;;6.02;100.00
67840;BME280;54636;51.684;5.142;2022-11-15T00:35:44;100865.69;;;6.16;100.00
67840;BME280;54636;51.684;5.142;2022-11-15T00:38:09;100867.03;;;6.21;100.00
67840;BME280;54636;51.684;5.142;2022-11-15T00:40:34;100863.31;;;6.27;100.00
67840;BME280;54636;51.684;5.142;2022-11-15T00:43:00;100863.75;;;6.26;100.00
67840;BME280;54636;51.684;5.142;2022-11-15T00:45:26;100864.94;;;6.34;100.00
67840;BME280;54636;51.684;5.142;2022-11-15T00:47:51;100861.34;;;6.37;100.00
67840;BME280;54636;51.684;5.142;2022-11-15T00:50:18;100862.25;;;6.43;100.00
67840;BME280;54636;51.684;5.142;2022-11-15T00:52:43;100856.72;;;6.47;100.00
67840;BME280;54636;51.684;5.142;2022-11-15T00:55:19;100847.72;;;6.50;100.00
67840;BME280;54636;51.684;5.142;2022-11-15T00:57:45;100855.06;;;6.49;100.00
67840;BME280;54636;51.684;5.142;2022-11-15T01:00:11;100853.69;;;6.54;100.00
67840;BME280;54636;51.684;5.142;2022-11-15T01:02:37;100853.84;;;6.59;100.00
67840;BME280;54636;51.684;5.142;2022-11-15T01:05:03;100846.47;;;6.60;100.00
67840;BME280;54636;51.684;5.142;2022-11-15T01:07:28;100847.09;;;6.64;100.00
67840;BME280;54636;51.684;5.142;2022-11-15T01:09:53;100815.50;;;6.46;100.00
67840;BME280;54636;51.684;5.142;2022-11-15T01:12:19;100816.06;;;6.50;100.00
67840;BME280;54636;51.684;5.142;2022-11-15T01:14:44;100856.22;;;6.76;100.00
67840;BME280;54636;51.684;5.142;2022-11-15T01:17:09;100828.03;;;6.68;100.00
67840;BME280;54636;51.684;5.142;2022-11-15T01:19:35;100841.66;;;6.82;100.00
67840;BME280;54636;51.684;5.142;2022-11-15T01:22:00;100838.06;;;6.85;100.00
67840;BME280;54636;51.684;5.142;2022-11-15T01:24:26;100837.44;;;6.90;100.00
67840;BME280;54636;51.684;5.142;2022-11-15T01:26:51;100835.63;;;6.97;100.00
67840;BME280;54636;51.684;5.142;2022-11-15T01:29:16;100834.28;;;7.01;100.00
67840;BME280;54636;51.684;5.142;2022-11-15T01:31:42;100814.94;;;6.93;100.00
67840;BME280;54636;51.684;5.142;2022-11-15T01:34:07;100840.69;;;7.13;100.00
67840;BME280;54636;51.684;5.142;2022-11-15T01:36:33;100810.41;;;7.00;100.00
67840;BME280;54636;51.684;5.142;2022-11-15T01:38:58;100819.41;;;7.06;100.00
67840;BME280;54636;51.684;5.142;2022-11-15T01:41:27;100809.34;;;7.06;100.00
67840;BME280;54636;51.684;5.142;2022-11-15T01:43:56;100826.84;;;7.20;100.00
67840;BME280;54636;51.684;5.142;2022-11-15T01:46:29;100816.03;;;7.20;100.00
67840;BME280;54636;51.684;5.142;2022-11-15T01:48:57;100831.88;;;7.36;100.00
67840;BME280;54636;51.684;5.142;2022-11-15T01:51:26;100813.28;;;7.29;100.00
67840;BME280;54636;51.684;5.142;2022-11-15T01:53:55;100819.25;;;7.42;100.00
67840;BME280;54636;51.684;5.142;2022-11-15T01:56:25;100806.94;;;7.41;100.00
67840;BME280;54636;51.684;5.142;2022-11-15T01:58:53;100801.22;;;7.39;100.00
67840;BME280;54636;51.684;5.142;2022-11-15T02:01:21;100786.06;;;7.42;100.00
67840;BME280;54636;51.684;5.142;2022-11-15T02:03:59;100792.91;;;7.52;100.00
67840;BME280;54636;51.684;5.142;2022-11-15T02:06:25;100805.63;;;7.60;100.00
67840;BME280;54636;51.684;5.142;2022-11-15T02:08:51;100805.00;;;7.66;100.00
67840;BME280;54636;51.684;5.142;2022-11-15T02:11:16;100801.66;;;7.71;100.00
67840;BME280;54636;51.684;5.142;2022-11-15T02:13:43;100806.63;;;7.72;100.00
67840;BME280;54636;51.684;5.142;2022-11-15T02:16:35;100799.44;;;7.84;100.00
67840;BME280;54636;51.684;5.142;2022-11-15T02:27:59;100787.59;;;8.05;100.00
67840;BME280;54636;51.684;5.142;2022-11-15T02:33:21;100782.66;;;8.18;100.00
67840;BME280;54636;51.684;5.142;2022-11-15T02:35:59;100752.25;;;8.09;100.00
67840;BME280;54636;51.684;5.142;2022-11-15T02:41:40;100756.94;;;8.23;100.00
67840;BME280;54636;51.684;5.142;2022-11-15T02:47:16;100771.34;;;8.44;100.00
67840;BME280;54636;51.684;5.142;2022-11-15T02:49:47;100766.19;;;8.46;100.00
67840;BME280;54636;51.684;5.142;2022-11-15T02:52:15;100755.28;;;8.40;100.00
67840;BME280;54636;51.684;5.142;2022-11-15T02:54:42;100760.13;;;8.51;100.00
67840;BME280;54636;51.684;5.142;2022-11-15T02:57:16;100747.53;;;8.48;100.00
67840;BME280;54636;51.684;5.142;2022-11-15T02:59:50;100765.06;;;8.67;100.00
67840;BME280;54636;51.684;5.142;2022-11-15T03:07:18;100763.00;;;8.91;100.00
67840;BME280;54636;51.684;5.142;2022-11-15T03:10:01;100746.66;;;8.86;100.00
67840;BME280;54636;51.684;5.142;2022-11-15T03:15:18;100763.72;;;9.07;100.00
67840;BME280;54636;51.684;5.142;2022-11-15T03:18:11;100753.34;;;9.05;100.00
67840;BME280;54636;51.684;5.142;2022-11-15T03:20:39;100744.13;;;8.97;100.00
67840;BME280;54636;51.684;5.142;2022-11-15T03:23:08;100771.44;;;9.14;100.00
67840;BME280;54636;51.684;5.142;2022-11-15T03:25:36;100756.66;;;9.15;100.00
67840;BME280;54636;51.684;5.142;2022-11-15T03:28:06;100747.00;;;9.08;100.00
67840;BME280;54636;51.684;5.142;2022-11-15T03:30:34;100753.63;;;9.07;100.00
67840;BME280;54636;51.684;5.142;2022-11-15T03:33:04;100751.22;;;8.95;100.00
67840;BME280;54636;51.684;5.142;2022-11-15T03:35:39;100767.84;;;9.02;100.00
67840;BME280;54636;51.684;5.142;2022-11-15T03:38:11;100765.28;;;9.13;100.00
67840;BME280;54636;51.684;5.142;2022-11-15T03:41:04;100746.91;;;9.03;100.00
67840;BME280;54636;51.684;5.142;2022-11-15T03:43:59;100758.34;;;9.12;100.00
67840;BME280;54636;51.684;5.142;2022-11-15T03:46:33;100736.31;;;8.84;100.00
67840;BME280;54636;51.684;5.142;2022-11-15T03:49:20;100734.25;;;8.79;100.00
67840;BME280;54636;51.684;5.142;2022-11-15T03:51:47;100727.44;;;8.69;100.00
67840;BME280;54636;51.684;5.142;2022-11-15T03:54:13;100753.38;;;8.90;100.00
67840;BME280;54636;51.684;5.142;2022-11-15T03:56:38;100717.28;;;8.64;100.00
67840;BME280;54636;51.684;5.142;2022-11-15T03:59:04;100734.06;;;8.68;100.00
67840;BME280;54636;51.684;5.142;2022-11-15T04:01:29;100757.78;;;8.73;100.00
67840;BME280;54636;51.684;5.142;2022-11-15T04:03:54;100746.41;;;8.69;100.00
67840;BME280;54636;51.684;5.142;2022-11-15T04:06:20;100738.94;;;8.64;100.00
67840;BME280;54636;51.684;5.142;2022-11-15T04:08:45;100741.75;;;8.55;100.00
67840;BME280;54636;51.684;5.142;2022-11-15T04:11:10;100758.91;;;8.67;100.00
67840;BME280;54636;51.684;5.142;2022-11-15T04:13:36;100759.09;;;8.78;100.00
67840;BME280;54636;51.684;5.142;2022-11-15T04:16:01;100755.25;;;8.84;100.00
67840;BME280;54636;51.684;5.142;2022-11-15T04:18:27;100760.75;;;8.90;100.00
67840;BME280;54636;51.684;5.142;2022-11-15T04:20:52;100751.69;;;8.93;100.00
67840;BME280;54636;51.684;5.142;2022-11-15T04:23:36;100748.88;;;9.02;100.00
67840;BME280;54636;51.684;5.142;2022-11-15T04:26:31;100752.34;;;9.03;100.00
67840;BME280;54636;51.684;5.142;2022-11-15T04:28:56;100742.09;;;8.92;100.00
67840;BME280;54636;51.684;5.142;2022-11-15T04:31:40;100749.16;;;9.04;100.00
67840;BME280;54636;51.684;5.142;2022-11-15T04:34:06;100730.97;;;8.90;100.00
67840;BME280;54636;51.684;5.142;2022-11-15T04:36:31;100740.97;;;8.84;100.00
67840;BME280;54636;51.684;5.142;2022-11-15T04:39:15;100768.78;;;8.99;100.00
67840;BME280;54636;51.684;5.142;2022-11-15T04:41:40;100767.56;;;9.00;100.00
67840;BME280;54636;51.684;5.142;2022-11-15T04:44:05;100763.44;;;9.05;100.00
67840;BME280;54636;51.684;5.142;2022-11-15T04:46:31;100756.41;;;9.13;100.00
67840;BME280;54636;51.684;5.142;2022-11-15T04:48:56;100759.19;;;9.18;100.00
67840;BME280;54636;51.684;5.142;2022-11-15T04:51:21;100739.13;;;9.10;100.00
67840;BME280;54636;51.684;5.142;2022-11-15T04:53:47;100754.31;;;9.22;100.00
67840;BME280;54636;51.684;5.142;2022-11-15T04:56:12;100760.75;;;9.25;100.00
67840;BME280;54636;51.684;5.142;2022-11-15T04:58:38;100754.41;;;9.28;100.00
67840;BME280;54636;51.684;5.142;2022-11-15T05:01:10;100753.19;;;9.29;100.00
67840;BME280;54636;51.684;5.142;2022-11-15T05:03:37;100747.97;;;9.25;100.00
67840;BME280;54636;51.684;5.142;2022-11-15T05:06:21;100747.38;;;9.36;100.00
67840;BME280;54636;51.684;5.142;2022-11-15T05:08:46;100725.72;;;9.21;100.00
67840;BME280;54636;51.684;5.142;2022-11-15T05:11:12;100742.59;;;9.31;100.00
67840;BME280;54636;51.684;5.142;2022-11-15T05:13:37;100748.09;;;9.37;100.00
67840;BME280;54636;51.684;5.142;2022-11-15T05:16:03;100748.09;;;9.37;100.00
67840;BME280;54636;51.684;5.142;2022-11-15T05:18:28;100728.31;;;9.31;100.00
67840;BME280;54636;51.684;5.142;2022-11-15T05:20:54;100729.25;;;9.28;100.00
67840;BME280;54636;51.684;5.142;2022-11-15T05:23:19;100740.53;;;9.41;100.00
67840;BME280;54636;51.684;5.142;2022-11-15T05:25:44;100715.50;;;9.31;100.00
67840;BME280;54636;51.684;5.142;2022-11-15T05:28:10;100743.97;;;9.41;100.00
67840;BME280;54636;51.684;5.142;2022-11-15T05:30:35;100715.81;;;9.18;100.00
67840;BME280;54636;51.684;5.142;2022-11-15T05:33:01;100706.34;;;9.08;100.00
67840;BME280;54636;51.684;5.142;2022-11-15T05:35:40;100741.88;;;9.31;100.00
67840;BME280;54636;51.684;5.142;2022-11-15T05:38:06;100755.84;;;9.44;100.00
67840;BME280;54636;51.684;5.142;2022-11-15T05:40:32;100755.38;;;9.45;100.00
67840;BME280;54636;51.684;5.142;2022-11-15T05:43:00;100739.22;;;9.36;100.00
67840;BME280;54636;51.684;5.142;2022-11-15T05:45:26;100748.94;;;9.43;100.00
67840;BME280;54636;51.684;5.142;2022-11-15T05:47:54;100760.03;;;9.45;100.00
67840;BME280;54636;51.684;5.142;2022-11-15T05:50:20;100767.03;;;9.51;100.00
67840;BME280;54636;51.684;5.142;2022-11-15T05:52:46;100759.66;;;9.52;100.00
67840;BME280;54636;51.684;5.142;2022-11-15T05:55:12;100763.84;;;9.53;100.00
67840;BME280;54636;51.684;5.142;2022-11-15T05:57:38;100745.00;;;9.44;100.00
67840;BME280;54636;51.684;5.142;2022-11-15T06:00:04;100763.66;;;9.56;100.00
67840;BME280;54636;51.684;5.142;2022-11-15T06:02:30;100754.06;;;9.41;100.00
67840;BME280;54636;51.684;5.142;2022-11-15T06:04:55;100761.34;;;9.49;100.00
67840;BME280;54636;51.684;5.142;2022-11-15T06:07:21;100769.00;;;9.51;100.00
67840;BME280;54636;51.684;5.142;2022-11-15T06:09:46;100753.41;;;9.46;100.00
67840;BME280;54636;51.684;5.142;2022-11-15T06:12:12;100751.16;;;9.44;100.00
67840;BME280;54636;51.684;5.142;2022-11-15T06:14:37;100744.91;;;9.38;100.00
67840;BME280;54636;51.684;5.142;2022-11-15T06:17:02;100763.38;;;9.54;100.00
67840;BME280;54636;51.684;5.142;2022-11-15T06:19:28;100772.53;;;9.57;100.00
67840;BME280;54636;51.684;5.142;2022-11-15T06:21:59;100764.59;;;9.53;100.00
67840;BME280;54636;51.684;5.142;2022-11-15T06:24:24;100764.41;;;9.57;100.00
67840;BME280;54636;51.684;5.142;2022-11-15T06:26:49;100750.88;;;9.42;100.00
67840;BME280;54636;51.684;5.142;2022-11-15T06:29:15;100758.91;;;9.51;100.00
67840;BME280;54636;51.684;5.142;2022-11-15T06:31:40;100771.78;;;9.56;100.00
67840;BME280;54636;51.684;5.142;2022-11-15T06:34:05;100764.06;;;9.49;100.00
67840;BME280;54636;51.684;5.142;2022-11-15T06:36:34;100765.19;;;9.43;100.00
67840;BME280;54636;51.684;5.142;2022-11-15T06:38:59;100779.66;;;9.54;100.00
67840;BME280;54636;51.684;5.142;2022-11-15T06:41:25;100773.41;;;9.48;100.00
67840;BME280;54636;51.684;5.142;2022-11-15T06:43:50;100781.34;;;9.52;100.00
67840;BME280;54636;51.684;5.142;2022-11-15T06:46:16;100785.06;;;9.54;100.00
67840;BME280;54636;51.684;5.142;2022-11-15T06:48:41;100791.25;;;9.55;100.00
67840;BME280;54636;51.684;5.142;2022-11-15T06:51:06;100789.47;;;9.52;100.00
67840;BME280;54636;51.684;5.142;2022-11-15T06:53:36;100771.47;;;9.34;100.00
67840;BME280;54636;51.684;5.142;2022-11-15T06:56:06;100789.03;;;9.39;100.00
67840;BME280;54636;51.684;5.142;2022-11-15T06:58:31;100796.31;;;9.47;100.00
67840;BME280;54636;51.684;5.142;2022-11-15T07:01:02;100799.50;;;9.46;100.00
67840;BME280;54636;51.684;5.142;2022-11-15T07:03:28;100808.84;;;9.45;100.00
67840;BME280;54636;51.684;5.142;2022-11-15T07:05:54;100797.72;;;9.43;100.00
67840;BME280;54636;51.684;5.142;2022-11-15T07:08:21;100804.16;;;9.45;100.00
67840;BME280;54636;51.684;5.142;2022-11-15T07:10:47;100804.25;;;9.51;100.00
67840;BME280;54636;51.684;5.142;2022-11-15T07:13:12;100783.06;;;9.35;100.00
67840;BME280;54636;51.684;5.142;2022-11-15T07:15:38;100795.75;;;9.43;100.00
67840;BME280;54636;51.684;5.142;2022-11-15T07:18:03;100786.53;;;9.35;100.00
67840;BME280;54636;51.684;5.142;2022-11-15T07:20:29;100796.91;;;9.37;100.00
67840;BME280;54636;51.684;5.142;2022-11-15T07:23:04;100801.38;;;9.40;100.00
67840;BME280;54636;51.684;5.142;2022-11-15T07:25:29;100786.56;;;9.20;100.00
67840;BME280;54636;51.684;5.142;2022-11-15T07:27:56;100767.38;;;9.04;100.00
67840;BME280;54636;51.684;5.142;2022-11-15T07:30:22;100803.00;;;9.17;100.00
67840;BME280;54636;51.684;5.142;2022-11-15T07:32:55;100790.53;;;9.05;100.00
67840;BME280;54636;51.684;5.142;2022-11-15T07:35:20;100784.28;;;8.99;100.00
67840;BME280;54636;51.684;5.142;2022-11-15T07:38:06;100806.38;;;9.12;100.00
67840;BME280;54636;51.684;5.142;2022-11-15T07:40:32;100795.53;;;9.12;100.00
67840;BME280;54636;51.684;5.142;2022-11-15T07:43:02;100753.03;;;8.83;100.00
67840;BME280;54636;51.684;5.142;2022-11-15T07:45:28;100765.88;;;9.03;100.00
67840;BME280;54636;51.684;5.142;2022-11-15T07:47:54;100775.16;;;9.16;100.00
67840;BME280;54636;51.684;5.142;2022-11-15T07:50:21;100797.00;;;9.28;100.00
67840;BME280;54636;51.684;5.142;2022-11-15T07:52:47;100793.09;;;9.29;100.00
67840;BME280;54636;51.684;5.142;2022-11-15T07:55:12;100788.75;;;9.37;100.00
67840;BME280;54636;51.684;5.142;2022-11-15T07:57:38;100789.25;;;9.35;100.00
67840;BME280;54636;51.684;5.142;2022-11-15T08:00:05;100794.53;;;9.44;100.00
67840;BME280;54636;51.684;5.142;2022-11-15T08:02:31;100798.00;;;9.45;100.00
67840;BME280;54636;51.684;5.142;2022-11-15T08:04:56;100784.38;;;9.39;100.00
67840;BME280;54636;51.684;5.142;2022-11-15T08:07:22;100752.34;;;9.23;100.00
67840;BME280;54636;51.684;5.142;2022-11-15T08:09:47;100800.19;;;9.61;100.00
67840;BME280;54636;51.684;5.142;2022-11-15T08:12:14;100773.88;;;9.47;100.00
67840;BME280;54636;51.684;5.142;2022-11-15T08:14:39;100797.28;;;9.65;100.00
67840;BME280;54636;51.684;5.142;2022-11-15T08:17:05;100789.41;;;9.67;100.00
67840;BME280;54636;51.684;5.142;2022-11-15T08:19:30;100796.06;;;9.66;100.00
67840;BME280;54636;51.684;5.142;2022-11-15T08:21:55;100781.56;;;9.69;100.00
67840;BME280;54636;51.684;5.142;2022-11-15T08:24:21;100787.28;;;9.76;100.00
67840;BME280;54636;51.684;5.142;2022-11-15T08:26:46;100771.94;;;9.68;100.00
67840;BME280;54636;51.684;5.142;2022-11-15T08:29:12;100773.88;;;9.67;100.00
67840;BME280;54636;51.684;5.142;2022-11-15T08:31:37;100764.88;;;9.55;100.00
67840;BME280;54636;51.684;5.142;2022-11-15T08:34:04;100779.72;;;9.60;100.00
67840;BME280;54636;51.684;5.142;2022-11-15T08:36:30;100766.09;;;9.54;100.00
67840;BME280;54636;51.684;5.142;2022-11-15T08:38:55;100765.81;;;9.52;100.00
67840;BME280;54636;51.684;5.142;2022-11-15T08:41:34;100769.34;;;9.58;100.00
67840;BME280;54636;51.684;5.142;2022-11-15T08:44:01;100745.13;;;9.55;100.00
67840;BME280;54636;51.684;5.142;2022-11-15T08:46:26;100753.81;;;9.59;100.00
67840;BME280;54636;51.684;5.142;2022-11-15T08:48:52;100764.00;;;9.64;100.00
67840;BME280;54636;51.684;5.142;2022-11-15T08:51:17;100756.31;;;9.63;100.00
67840;BME280;54636;51.684;5.142;2022-11-15T08:53:43;100758.56;;;9.64;100.00
67840;BME280;54636;51.684;5.142;2022-11-15T08:56:10;100740.72;;;9.57;100.00
67840;BME280;54636;51.684;5.142;2022-11-15T08:58:36;100755.31;;;9.60;100.00
67840;BME280;54636;51.684;5.142;2022-11-15T09:01:03;100739.50;;;9.58;100.00
67840;BME280;54636;51.684;5.142;2022-11-15T09:03:28;100737.00;;;9.55;100.00
67840;BME280;54636;51.684;5.142;2022-11-15T09:05:58;100745.75;;;9.65;100.00
67840;BME280;54636;51.684;5.142;2022-11-15T09:08:25;100730.22;;;9.65;100.00
67840;BME280;54636;51.684;5.142;2022-11-15T09:10:51;100747.09;;;9.75;100.00
67840;BME280;54636;51.684;5.142;2022-11-15T09:13:16;100726.84;;;9.70;100.00
67840;BME280;54636;51.684;5.142;2022-11-15T09:15:42;100729.84;;;9.78;100.00
67840;BME280;54636;51.684;5.142;2022-11-15T09:18:07;100730.59;;;9.78;100.00
67840;BME280;54636;51.684;5.142;2022-11-15T09:20:33;100726.13;;;9.75;100.00
67840;BME280;54636;51.684;5.142;2022-11-15T09:23:02;100725.72;;;9.82;100.00
67840;BME280;54636;51.684;5.142;2022-11-15T09:25:28;100719.59;;;9.87;100.00
67840;BME280;54636;51.684;5.142;2022-11-15T09:27:54;100725.91;;;9.99;100.00
67840;BME280;54636;51.684;5.142;2022-11-15T09:30:20;100730.84;;;10.01;100.00
67840;BME280;54636;51.684;5.142;2022-11-15T09:32:45;100733.22;;;9.93;100.00
67840;BME280;54636;51.684;5.142;2022-11-15T09:35:11;100726.84;;;9.96;100.00
67840;BME280;54636;51.684;5.142;2022-11-15T09:37:36;100727.06;;;9.93;100.00
67840;BME280;54636;51.684;5.142;2022-11-15T09:40:02;100732.47;;;9.93;100.00
67840;BME280;54636;51.684;5.142;2022-11-15T09:42:56;100729.84;;;9.98;100.00
67840;BME280;54636;51.684;5.142;2022-11-15T09:45:36;100713.81;;;10.00;100.00
67840;BME280;54636;51.684;5.142;2022-11-15T09:50:50;100729.53;;;10.16;100.00
67840;BME280;54636;51.684;5.142;2022-11-15T09:53:27;100722.69;;;10.21;100.00
67840;BME280;54636;51.684;5.142;2022-11-15T09:56:03;100720.28;;;10.29;100.00
67840;BME280;54636;51.684;5.142;2022-11-15T09:58:37;100723.75;;;10.29;100.00
67840;BME280;54636;51.684;5.142;2022-11-15T10:01:12;100705.66;;;10.20;100.00
67840;BME280;54636;51.684;5.142;2022-11-15T10:03:42;100724.34;;;10.39;100.00
67840;BME280;54636;51.684;5.142;2022-11-15T10:06:23;100716.44;;;10.41;100.00
67840;BME280;54636;51.684;5.142;2022-11-15T10:09:03;100711.97;;;10.38;100.00
67840;BME280;54636;51.684;5.142;2022-11-15T10:11:34;100701.03;;;10.27;100.00
67840;BME280;54636;51.684;5.142;2022-11-15T10:14:19;100701.28;;;10.29;100.00
67840;BME280;54636;51.684;5.142;2022-11-15T10:19:47;100704.53;;;10.33;100.00
67840;BME280;54636;51.684;5.142;2022-11-15T10:23:10;100696.91;;;10.37;100.00
67840;BME280;54636;51.684;5.142;2022-11-15T10:25:29;100682.59;;;10.36;100.00
67840;BME280;54636;51.684;5.142;2022-11-15T10:30:52;100677.97;;;10.48;100.00
67840;BME280;54636;51.684;5.142;2022-11-15T10:33:31;100675.09;;;10.57;100.00
67840;BME280;54636;51.684;5.142;2022-11-15T10:46:46;100667.75;;;10.69;100.00
67840;BME280;54636;51.684;5.142;2022-11-15T10:49:19;100667.72;;;10.63;100.00
67840;BME280;54636;51.684;5.142;2022-11-15T10:54:12;100660.75;;;10.56;100.00
67840;BME280;54636;51.684;5.142;2022-11-15T10:56:40;100643.63;;;10.45;100.00
67840;BME280;54636;51.684;5.142;2022-11-15T10:59:15;100651.88;;;10.56;100.00
67840;BME280;54636;51.684;5.142;2022-11-15T11:01:48;100641.03;;;10.62;100.00
67840;BME280;54636;51.684;5.142;2022-11-15T11:04:13;100646.72;;;10.64;100.00
67840;BME280;54636;51.684;5.142;2022-11-15T11:06:54;100645.56;;;10.76;100.00
67840;BME280;54636;51.684;5.142;2022-11-15T11:11:52;100609.47;;;10.70;99.64
67840;BME280;54636;51.684;5.142;2022-11-15T11:14:24;100629.56;;;10.83;99.69
67840;BME280;54636;51.684;5.142;2022-11-15T11:17:26;100626.13;;;10.88;100.00
67840;BME280;54636;51.684;5.142;2022-11-15T11:25:40;100600.75;;;11.03;96.21
67840;BME280;54636;51.684;5.142;2022-11-15T11:33:48;100584.03;;;11.32;93.70
67840;BME280;54636;51.684;5.142;2022-11-15T11:39:16;100553.59;;;11.22;93.76
67840;BME280;54636;51.684;5.142;2022-11-15T11:41:53;100580.13;;;11.50;93.12
67840;BME280;54636;51.684;5.142;2022-11-15T11:47:01;100571.75;;;11.65;90.70
67840;BME280;54636;51.684;5.142;2022-11-15T11:52:23;100552.94;;;11.83;89.08
67840;BME280;54636;51.684;5.142;2022-11-15T11:55:14;100552.72;;;11.87;89.64
67840;BME280;54636;51.684;5.142;2022-11-15T11:58:13;100535.13;;;11.88;91.82
67840;BME280;54636;51.684;5.142;2022-11-15T12:00:45;100538.59;;;11.88;88.04
67840;BME280;54636;51.684;5.142;2022-11-15T12:03:20;100534.41;;;11.93;85.98
67840;BME280;54636;51.684;5.142;2022-11-15T12:11:45;100512.13;;;11.95;85.76
67840;BME280;54636;51.684;5.142;2022-11-15T12:15:10;100483.44;;;11.82;85.75
67840;BME280;54636;51.684;5.142;2022-11-15T12:17:05;100511.13;;;11.98;84.54
67840;BME280;54636;51.684;5.142;2022-11-15T12:19:30;100508.41;;;11.98;84.94
67840;BME280;54636;51.684;5.142;2022-11-15T12:22:00;100510.16;;;11.95;86.08
67840;BME280;54636;51.684;5.142;2022-11-15T12:27:22;100491.59;;;11.82;86.83
67840;BME280;54636;51.684;5.142;2022-11-15T12:29:58;100492.09;;;11.81;87.17
67840;BME280;54636;51.684;5.142;2022-11-15T12:32:32;100493.34;;;11.85;86.31
67840;BME280;54636;51.684;5.142;2022-11-15T12:34:59;100459.94;;;11.79;82.88
67840;BME280;54636;51.684;5.142;2022-11-15T12:37:53;100481.69;;;11.85;86.83
67840;BME280;54636;51.684;5.142;2022-11-15T12:40:30;100485.91;;;11.80;85.00
67840;BME280;54636;51.684;5.142;2022-11-15T12:43:34;100476.03;;;11.66;86.10
67840;BME280;54636;51.684;5.142;2022-11-15T12:46:02;100471.56;;;11.69;84.46
67840;BME280;54636;51.684;5.142;2022-11-15T12:51:00;100463.66;;;11.65;83.03
67840;BME280;54636;51.684;5.142;2022-11-15T12:53:34;100452.28;;;11.61;82.56
67840;BME280;54636;51.684;5.142;2022-11-15T12:58:46;100439.69;;;11.52;84.04
67840;BME280;54636;51.684;5.142;2022-11-15T13:06:46;100417.69;;;11.39;84.07
67840;BME280;54636;51.684;5.142;2022-11-15T13:12:11;100437.94;;;11.55;83.42
67840;BME280;54636;51.684;5.142;2022-11-15T13:17:56;100419.88;;;11.69;83.55
67840;BME280;54636;51.684;5.142;2022-11-15T13:20:26;100420.34;;;11.73;83.60
67840;BME280;54636;51.684;5.142;2022-11-15T13:25:54;100409.22;;;11.87;82.57
67840;BME280;54636;51.684;5.142;2022-11-15T13:28:36;100402.53;;;11.83;81.49
67840;BME280;54636;51.684;5.142;2022-11-15T13:31:18;100397.81;;;11.89;82.27
67840;BME280;54636;51.684;5.142;2022-11-15T13:33:44;100394.34;;;11.94;82.18
67840;BME280;54636;51.684;5.142;2022-11-15T13:36:18;100389.66;;;11.95;81.81
67840;BME280;54636;51.684;5.142;2022-11-15T13:38:44;100374.06;;;11.90;81.37
67840;BME280;54636;51.684;5.142;2022-11-15T13:41:21;100375.53;;;11.96;82.39
67840;BME280;54636;51.684;5.142;2022-11-15T13:43:48;100376.28;;;11.97;80.96
67840;BME280;54636;51.684;5.142;2022-11-15T13:46:22;100367.38;;;11.96;82.24
67840;BME280;54636;51.684;5.142;2022-11-15T13:48:57;100368.84;;;11.97;83.22
67840;BME280;54636;51.684;5.142;2022-11-15T13:54:30;100345.34;;;12.00;81.17
67840;BME280;54636;51.684;5.142;2022-11-15T13:57:03;100338.66;;;12.01;81.97
67840;BME280;54636;51.684;5.142;2022-11-15T13:59:36;100337.41;;;12.02;82.17
67840;BME280;54636;51.684;5.142;2022-11-15T14:02:17;100317.91;;;11.92;81.58
67840;BME280;54636;51.684;5.142;2022-11-15T14:04:55;100334.19;;;12.03;82.30
67840;BME280;54636;51.684;5.142;2022-11-15T14:07:24;100316.16;;;11.95;80.80
67840;BME280;54636;51.684;5.142;2022-11-15T14:09:50;100323.09;;;11.96;81.40
67840;BME280;54636;51.684;5.142;2022-11-15T14:14:49;100308.53;;;11.87;81.63
67840;BME280;54636;51.684;5.142;2022-11-15T14:17:34;100315.94;;;11.87;82.87
67840;BME280;54636;51.684;5.142;2022-11-15T14:20:01;100304.59;;;11.83;82.98
67840;BME280;54636;51.684;5.142;2022-11-15T14:22:30;100293.44;;;11.75;82.54
67840;BME280;54636;51.684;5.142;2022-11-15T14:25:16;100297.38;;;11.91;82.71
67840;BME280;54636;51.684;5.142;2022-11-15T14:27:45;100288.00;;;11.75;82.78
67840;BME280;54636;51.684;5.142;2022-11-15T14:30:29;100289.75;;;11.78;81.90
67840;BME280;54636;51.684;5.142;2022-11-15T14:32:54;100289.25;;;11.80;82.90
67840;BME280;54636;51.684;5.142;2022-11-15T14:35:21;100276.66;;;11.77;81.82
67840;BME280;54636;51.684;5.142;2022-11-15T14:37:47;100262.31;;;11.71;82.19
67840;BME280;54636;51.684;5.142;2022-11-15T14:40:16;100282.84;;;11.77;82.50
67840;BME280;54636;51.684;5.142;2022-11-15T14:42:43;100272.69;;;11.72;82.96
67840;BME280;54636;51.684;5.142;2022-11-15T14:45:21;100260.31;;;11.71;83.27
67840;BME280;54636;51.684;5.142;2022-11-15T14:47:47;100258.63;;;11.68;83.22